createdAt,value
2018-07-24T00:00:21.536Z,66.40
2018-07-24T00:02:49.936Z,66.60
2018-07-24T00:05:18.300Z,67.00
2018-07-24T00:07:46.697Z,67.20
2018-07-24T00:10:15.083Z,67.30
2018-07-24T00:12:43.435Z,67.50
2018-07-24T00:15:11.822Z,67.80
2018-07-24T00:17:40.254Z,68.10
2018-07-24T00:20:08.815Z,69.00
2018-07-24T00:22:37.244Z,68.60
2018-07-24T00:27:40.483Z,68.90
2018-07-24T00:30:08.896Z,67.90
2018-07-24T00:32:37.257Z,68.50
2018-07-24T00:37:34.569Z,69.40
2018-07-24T00:42:34.076Z,69.80
2018-07-24T00:45:02.513Z,71.00
2018-07-24T00:49:58.901Z,72.20
2018-07-24T00:52:27.335Z,72.20
2018-07-24T00:54:55.716Z,72.00
2018-07-24T00:57:24.054Z,71.50
2018-07-24T00:59:52.447Z,71.80
2018-07-24T01:04:48.939Z,72.40
2018-07-24T01:07:17.342Z,72.60
2018-07-24T01:09:45.920Z,73.10
2018-07-24T01:12:14.323Z,73.50
2018-07-24T01:14:42.729Z,72.20
2018-07-24T01:17:11.097Z,72.90
2018-07-24T01:22:07.620Z,73.40
2018-07-24T01:24:39.863Z,73.50
2018-07-24T01:27:08.222Z,73.40
2018-07-24T01:29:36.604Z,72.90
2018-07-24T01:32:05.014Z,72.70
2018-07-24T01:34:33.426Z,73.10
2018-07-24T01:37:01.985Z,73.30
2018-07-24T01:39:30.374Z,73.40
2018-07-24T01:41:58.751Z,73.40
2018-07-24T01:44:27.192Z,73.40
2018-07-24T01:46:55.550Z,73.60
2018-07-24T01:49:23.928Z,73.80
2018-07-24T01:51:52.339Z,74.00
2018-07-24T01:54:20.687Z,74.80
2018-07-24T01:56:49.026Z,75.80
2018-07-24T01:59:17.403Z,75.70
2018-07-24T02:01:45.743Z,76.50
2018-07-24T02:04:14.112Z,77.00
2018-07-24T02:06:42.535Z,77.60
2018-07-24T02:09:11.728Z,77.70
2018-07-24T02:11:40.290Z,78.10
2018-07-24T02:14:09.074Z,77.20
2018-07-24T02:16:37.467Z,77.20
2018-07-24T02:19:05.982Z,77.30
2018-07-24T02:21:34.397Z,77.40
2018-07-24T02:24:02.814Z,76.80
2018-07-24T02:26:31.180Z,78.00
2018-07-24T02:28:59.593Z,78.40
2018-07-24T02:31:27.973Z,77.00
2018-07-24T02:33:56.408Z,77.70
2018-07-24T02:36:24.810Z,78.10
2018-07-24T02:38:53.197Z,78.10
2018-07-24T02:41:21.595Z,78.40
2018-07-24T02:43:50.043Z,77.90
2018-07-24T02:46:18.509Z,77.80
2018-07-24T02:48:46.926Z,79.10
2018-07-24T02:51:15.332Z,80.10
2018-07-24T02:56:11.890Z,80.90
2018-07-24T02:58:40.319Z,81.10
2018-07-24T03:01:08.702Z,80.90
2018-07-24T03:03:37.072Z,80.70
2018-07-24T03:06:05.606Z,80.90
2018-07-24T03:08:33.973Z,80.70
2018-07-24T03:11:02.341Z,80.90
2018-07-24T03:13:30.917Z,80.60
2018-07-24T03:15:59.277Z,80.00
2018-07-24T03:18:27.685Z,79.60
2018-07-24T03:20:56.139Z,80.60
2018-07-24T03:23:24.533Z,81.30
2018-07-24T03:25:52.930Z,82.00
2018-07-24T03:28:21.307Z,82.20
2018-07-24T03:30:49.680Z,81.50
2018-07-24T03:33:18.042Z,81.60
2018-07-24T03:35:46.444Z,82.00
2018-07-24T03:38:14.818Z,82.00
2018-07-24T03:40:43.189Z,82.10
2018-07-24T03:43:11.608Z,82.40
2018-07-24T03:45:39.991Z,82.60
2018-07-24T03:48:08.370Z,82.70
2018-07-24T03:50:36.780Z,83.00
2018-07-24T03:53:05.411Z,83.20
2018-07-24T03:58:01.973Z,83.50
2018-07-24T04:00:30.304Z,83.70
2018-07-24T04:02:58.680Z,83.70
2018-07-24T04:05:27.103Z,83.10
2018-07-24T04:07:55.467Z,82.10
2018-07-24T04:10:23.808Z,83.00
2018-07-24T04:12:52.234Z,83.70
2018-07-24T04:15:20.604Z,83.90
2018-07-24T04:17:48.978Z,84.40
2018-07-24T04:20:17.381Z,84.20
2018-07-24T04:22:45.725Z,84.20
2018-07-24T04:25:14.103Z,84.30
2018-07-24T04:27:42.518Z,84.20
2018-07-24T04:32:39.007Z,84.30
2018-07-24T04:35:07.403Z,85.10
2018-07-24T04:37:35.769Z,86.40
2018-07-24T04:40:04.570Z,87.00
2018-07-24T04:42:32.953Z,87.50
2018-07-24T04:45:01.363Z,88.10
2018-07-24T04:47:29.768Z,88.60
2018-07-24T04:49:58.215Z,88.20
2018-07-24T04:52:26.564Z,88.30
2018-07-24T04:54:54.947Z,88.90
2018-07-24T04:57:23.369Z,89.30
2018-07-24T04:59:51.742Z,89.90
2018-07-24T05:02:20.120Z,89.30
2018-07-24T05:04:48.505Z,90.20
2018-07-24T05:07:16.897Z,90.10
2018-07-24T05:12:13.347Z,90.50
2018-07-24T05:14:41.720Z,90.60
2018-07-24T05:19:38.308Z,91.20
2018-07-24T05:22:06.659Z,90.80
2018-07-24T05:24:35.027Z,89.90
2018-07-24T05:29:31.521Z,90.50
2018-07-24T05:31:59.883Z,90.40
2018-07-24T05:34:28.305Z,90.60
2018-07-24T05:36:56.701Z,90.70
2018-07-24T05:39:25.075Z,90.50
2018-07-24T05:41:53.535Z,89.30
2018-07-24T05:44:21.927Z,89.80
2018-07-24T05:46:50.305Z,90.30
2018-07-24T05:49:18.698Z,90.50
2018-07-24T05:51:47.059Z,89.20
2018-07-24T05:54:15.436Z,89.50
2018-07-24T05:56:43.845Z,90.00
2018-07-24T06:01:40.497Z,88.80
2018-07-24T06:06:37.017Z,88.30
2018-07-24T06:09:07.026Z,88.40
2018-07-24T06:11:35.470Z,88.80
2018-07-24T06:14:03.916Z,87.50
2018-07-24T06:16:32.452Z,87.50
2018-07-24T06:19:00.886Z,88.40
2018-07-24T06:21:29.271Z,88.40
2018-07-24T06:23:57.637Z,88.60
2018-07-24T06:26:26.020Z,88.80
2018-07-24T06:28:54.397Z,88.80
2018-07-24T06:31:22.771Z,88.10
2018-07-24T06:33:51.186Z,87.90
2018-07-24T06:36:19.557Z,87.60
2018-07-24T06:38:47.948Z,86.40
2018-07-24T06:41:16.374Z,86.90
2018-07-24T06:43:44.806Z,87.20
2018-07-24T06:46:13.189Z,87.20
2018-07-24T06:48:41.616Z,85.40
2018-07-24T06:51:10.027Z,85.30
2018-07-24T06:53:38.372Z,85.20
2018-07-24T06:56:06.790Z,84.60
2018-07-24T07:01:03.314Z,84.80
2018-07-24T07:03:31.847Z,84.10
2018-07-24T07:06:00.157Z,83.20
2018-07-24T07:08:28.554Z,83.00
2018-07-24T07:10:56.960Z,82.70
2018-07-24T07:13:25.453Z,82.10
2018-07-24T07:15:53.845Z,81.20
2018-07-24T07:18:22.266Z,79.70
2018-07-24T07:20:50.663Z,78.70
2018-07-24T07:25:47.206Z,78.50
2018-07-24T07:28:15.589Z,78.70
2018-07-24T07:30:43.977Z,78.80
2018-07-24T07:33:12.436Z,78.30
2018-07-24T07:35:40.839Z,77.10
2018-07-24T07:38:09.241Z,77.00
2018-07-24T07:43:05.780Z,76.50
2018-07-24T07:45:34.180Z,75.70
2018-07-24T07:48:02.631Z,75.70
2018-07-24T07:50:31.011Z,76.00
2018-07-24T07:52:59.508Z,75.20
2018-07-24T08:02:52.884Z,73.70
2018-07-24T08:05:21.305Z,73.10
2018-07-24T08:07:49.682Z,73.70
2018-07-24T08:10:18.098Z,71.50
2018-07-24T08:12:46.536Z,71.10
2018-07-24T08:17:43.101Z,72.20
2018-07-24T08:20:11.495Z,72.40
2018-07-24T08:22:39.884Z,70.50
2018-07-24T08:25:08.302Z,68.40
2018-07-24T08:27:36.721Z,67.30
2018-07-24T08:30:05.434Z,68.10
2018-07-24T08:32:33.872Z,68.80
2018-07-24T08:35:02.291Z,68.60
2018-07-24T08:37:30.668Z,68.80
2018-07-24T08:39:59.125Z,69.20
2018-07-24T08:42:27.524Z,68.00
2018-07-24T08:44:55.924Z,68.60
2018-07-24T08:47:24.396Z,68.20
2018-07-24T08:49:52.796Z,67.70
2018-07-24T08:52:21.215Z,65.50
2018-07-24T08:54:49.792Z,66.20
2018-07-24T08:57:17.990Z,62.20
2018-07-24T08:59:46.398Z,62.30
2018-07-24T09:02:14.845Z,62.60
2018-07-24T09:04:43.267Z,62.10
2018-07-24T09:07:11.646Z,60.20
2018-07-24T09:09:40.047Z,60.90
2018-07-24T09:12:08.471Z,60.90
2018-07-24T09:14:36.909Z,60.00
2018-07-24T09:17:05.353Z,59.20
2018-07-24T09:19:51.926Z,59.00
2018-07-24T09:22:20.379Z,59.60
2018-07-24T09:27:16.881Z,57.90
2018-07-24T09:29:45.328Z,58.30
2018-07-24T09:34:41.816Z,56.70
2018-07-24T09:37:10.264Z,56.10
2018-07-24T09:39:38.708Z,55.90
2018-07-24T09:42:07.082Z,55.40
2018-07-24T09:44:35.526Z,56.00
2018-07-24T09:47:58.550Z,55.50
2018-07-24T09:52:55.119Z,54.90
2018-07-24T09:55:23.521Z,54.60
2018-07-24T09:57:51.953Z,53.30
2018-07-24T10:03:07.737Z,54.10
2018-07-24T10:05:36.144Z,54.20
2018-07-24T10:10:32.696Z,51.80
2018-07-24T10:15:29.249Z,53.30
2018-07-24T10:20:25.772Z,53.20
2018-07-24T10:22:54.165Z,52.90
2018-07-24T10:25:22.600Z,53.00
2018-07-24T10:27:51.031Z,52.00
2018-07-24T10:32:47.651Z,52.20
2018-07-24T10:35:16.222Z,52.00
2018-07-24T10:37:44.995Z,51.20
2018-07-24T10:40:13.429Z,51.20
2018-07-24T10:42:41.901Z,51.50
2018-07-24T10:45:10.351Z,50.80
2018-07-24T10:47:38.788Z,50.80
2018-07-24T10:52:35.361Z,51.40
2018-07-24T11:02:28.619Z,51.30
2018-07-24T11:04:57.237Z,50.50
2018-07-24T11:09:53.827Z,48.40
2018-07-24T11:12:22.403Z,49.10
2018-07-24T11:14:50.793Z,48.50
2018-07-24T11:17:19.586Z,48.00
2018-07-24T11:19:48.008Z,47.50
2018-07-24T11:22:16.464Z,47.30
2018-07-24T11:24:44.835Z,47.60
2018-07-24T11:27:13.227Z,48.30
2018-07-24T11:29:41.615Z,48.00
2018-07-24T11:32:10.056Z,47.80
2018-07-24T11:34:38.481Z,47.20
2018-07-24T11:37:06.887Z,46.00
2018-07-24T11:42:03.489Z,46.60
2018-07-24T11:44:31.883Z,46.40
2018-07-24T11:47:00.324Z,47.00
2018-07-24T11:49:28.697Z,46.50
2018-07-24T11:51:57.244Z,45.00
2018-07-24T11:54:25.593Z,46.30
2018-07-24T11:56:57.189Z,45.10
2018-07-24T12:01:53.726Z,44.90
2018-07-24T12:04:22.154Z,44.20
2018-07-24T12:06:50.541Z,44.70
2018-07-24T12:09:19.004Z,45.20
2018-07-24T12:11:47.431Z,43.40
2018-07-24T12:14:15.867Z,43.70
2018-07-24T12:16:44.311Z,44.00
2018-07-24T12:19:12.710Z,44.70
2018-07-24T12:21:41.133Z,45.20
2018-07-24T12:24:09.595Z,44.90
2018-07-24T12:26:38.012Z,43.60
2018-07-24T12:29:06.465Z,43.70
2018-07-24T12:31:34.898Z,45.00
2018-07-24T12:34:03.261Z,44.10
2018-07-24T12:36:31.654Z,44.80
2018-07-24T12:43:56.404Z,28.60
2018-07-24T12:46:24.842Z,27.50
2018-07-24T12:48:53.213Z,26.60
2018-07-24T12:51:21.625Z,25.70
2018-07-24T12:56:18.219Z,24.40
2018-07-24T12:58:46.683Z,27.10
2018-07-24T13:01:15.053Z,25.90
2018-07-24T13:03:43.478Z,24.30
2018-07-24T13:06:11.861Z,23.20
2018-07-24T13:08:40.316Z,22.60
2018-07-24T13:11:08.856Z,21.40
2018-07-24T13:13:37.140Z,21.00
2018-07-24T13:16:05.593Z,20.20
2018-07-24T13:18:33.960Z,18.80
2018-07-24T13:21:02.383Z,20.20
2018-07-24T13:23:30.840Z,23.00
2018-07-24T13:28:27.348Z,25.60
2018-07-24T13:30:55.803Z,23.80
2018-07-24T13:33:24.193Z,24.50
2018-07-24T13:35:52.601Z,26.10
2018-07-24T13:38:21.053Z,27.40
2018-07-24T13:43:17.657Z,29.10
2018-07-24T13:45:46.098Z,29.40
2018-07-24T13:48:14.549Z,29.70
2018-07-24T13:53:11.134Z,31.50
2018-07-24T13:55:39.595Z,31.80
2018-07-24T13:58:08.038Z,32.10
2018-07-24T14:00:38.169Z,32.40
2018-07-24T14:03:06.507Z,32.70
2018-07-24T14:05:34.944Z,32.70
2018-07-24T14:08:03.389Z,33.80
2018-07-24T14:10:31.782Z,33.90
2018-07-24T14:15:28.383Z,33.60
2018-07-24T14:17:56.760Z,33.80
2018-07-24T14:20:25.205Z,33.70
2018-07-24T14:22:53.626Z,34.30
2018-07-24T14:25:22.006Z,33.80
2018-07-24T14:27:50.444Z,33.40
2018-07-24T14:32:46.964Z,28.00
2018-07-24T14:35:15.527Z,27.10
2018-07-24T14:37:43.910Z,28.20
2018-07-24T14:40:12.313Z,25.60
2018-07-24T14:42:40.783Z,24.30
2018-07-24T14:45:09.148Z,24.50
2018-07-24T14:47:37.537Z,23.80
2018-07-24T14:52:34.671Z,22.30
2018-07-24T14:55:06.239Z,20.60
2018-07-24T14:57:34.649Z,21.40
2018-07-24T15:00:03.052Z,21.00
2018-07-24T15:07:27.769Z,20.10
2018-07-24T15:09:56.188Z,20.10
2018-07-24T15:12:24.639Z,20.00
2018-07-24T15:17:21.169Z,19.80
2018-07-24T15:19:49.629Z,20.00
2018-07-24T15:22:18.042Z,19.90
2018-07-24T15:24:46.482Z,18.80
2018-07-24T15:27:15.046Z,19.30
2018-07-24T15:29:43.464Z,19.70
2018-07-24T15:32:11.886Z,19.60
2018-07-24T15:37:08.476Z,20.00
2018-07-24T15:39:36.904Z,20.60
2018-07-24T15:44:33.626Z,21.10
2018-07-24T15:47:02.061Z,21.40
2018-07-24T15:49:30.445Z,22.10
2018-07-24T15:51:58.835Z,21.70
2018-07-24T15:54:27.215Z,21.70
2018-07-24T15:56:58.113Z,21.60
2018-07-24T16:01:54.682Z,23.80
2018-07-24T16:06:51.190Z,25.80
2018-07-24T16:09:19.598Z,26.70
2018-07-24T16:16:45.911Z,29.20
2018-07-24T16:19:14.359Z,30.00
2018-07-24T16:24:10.856Z,30.50
2018-07-24T16:26:39.340Z,30.50
2018-07-24T16:29:07.747Z,30.10
2018-07-24T16:31:36.163Z,29.90
2018-07-24T16:34:04.613Z,29.60
2018-07-24T16:36:33.055Z,29.90
2018-07-24T16:39:01.458Z,29.70
2018-07-24T16:41:29.915Z,29.80
2018-07-24T16:43:58.380Z,29.80
2018-07-24T16:46:26.721Z,29.20
2018-07-24T16:51:23.246Z,30.00
2018-07-24T16:53:51.646Z,30.10
2018-07-24T16:56:20.122Z,29.80
2018-07-24T16:58:48.492Z,29.20
2018-07-24T17:01:16.893Z,29.40
2018-07-24T17:06:13.438Z,29.70
2018-07-24T17:11:10.022Z,29.80
2018-07-24T17:13:38.518Z,30.00
2018-07-24T17:16:06.889Z,30.00
2018-07-24T17:18:35.358Z,28.90
2018-07-24T17:21:03.826Z,28.80
2018-07-24T17:26:00.384Z,29.60
2018-07-24T17:28:28.849Z,29.70
2018-07-24T17:30:57.240Z,29.60
2018-07-24T17:35:53.802Z,29.10
2018-07-24T17:40:50.359Z,29.20
2018-07-24T17:43:18.776Z,29.90
2018-07-24T17:45:47.201Z,30.20
2018-07-24T17:48:15.682Z,30.90
2018-07-24T17:50:44.075Z,30.80
2018-07-24T17:53:12.534Z,31.00
2018-07-24T17:55:40.959Z,31.00
2018-07-24T17:58:09.333Z,30.30
2018-07-24T18:00:37.758Z,31.00
2018-07-24T18:03:06.237Z,30.60
2018-07-24T18:05:34.660Z,30.40
2018-07-24T18:08:03.100Z,31.30
2018-07-24T18:10:31.555Z,30.90
2018-07-24T18:13:00.043Z,32.00
2018-07-24T18:15:28.528Z,31.70
2018-07-24T18:17:56.934Z,32.40
2018-07-24T18:20:25.368Z,32.70
2018-07-24T18:22:53.779Z,33.30
2018-07-24T18:25:22.267Z,34.00
2018-07-24T18:27:50.947Z,34.30
2018-07-24T18:30:19.215Z,34.70
2018-07-24T18:32:47.671Z,35.20
2018-07-24T18:35:16.083Z,35.30
2018-07-24T18:37:47.622Z,35.50
2018-07-24T18:40:16.076Z,36.00
2018-07-24T18:42:55.196Z,36.00
2018-07-24T18:45:22.378Z,36.70
2018-07-24T18:47:58.359Z,36.90
2018-07-24T18:50:30.406Z,37.40
2018-07-24T18:55:31.871Z,36.80
2018-07-24T18:58:00.382Z,36.60
2018-07-24T19:00:31.740Z,37.00
2018-07-24T19:02:59.438Z,36.90
2018-07-24T19:05:28.664Z,37.60
2018-07-24T19:07:57.718Z,38.10
2018-07-24T19:10:26.732Z,38.30
2018-07-24T19:12:55.214Z,38.60
2018-07-24T19:15:25.400Z,38.80
2018-07-24T19:22:50.585Z,39.00
2018-07-24T19:25:19.016Z,39.40
2018-07-24T19:30:17.168Z,39.70
2018-07-24T19:32:47.470Z,39.90
2018-07-24T19:35:16.442Z,40.10
2018-07-24T19:37:45.212Z,40.20
2018-07-24T19:45:10.538Z,41.10
2018-07-24T19:47:39.518Z,40.90
2018-07-24T19:50:08.498Z,40.90
2018-07-24T19:52:37.089Z,41.00
2018-07-24T19:55:06.043Z,40.80
2018-07-24T19:57:34.695Z,40.50
2018-07-24T20:02:32.298Z,41.00
2018-07-24T20:05:00.943Z,41.50
2018-07-24T20:07:31.932Z,41.90
2018-07-24T20:12:28.675Z,42.50
2018-07-24T20:14:58.006Z,42.70
2018-07-24T20:17:27.238Z,42.50
2018-07-24T20:19:58.216Z,43.20
2018-07-24T20:22:28.294Z,43.90
2018-07-24T20:24:56.196Z,44.40
2018-07-24T20:29:56.665Z,44.90
2018-07-24T20:32:25.711Z,45.00
2018-07-24T20:34:54.302Z,45.20
2018-07-24T20:37:24.990Z,45.50
2018-07-24T20:39:53.456Z,45.70
2018-07-24T20:42:21.968Z,46.00
2018-07-24T20:44:50.860Z,46.10
2018-07-24T20:47:19.285Z,46.30
2018-07-24T20:52:15.940Z,46.30
2018-07-24T20:54:44.320Z,46.80
2018-07-24T20:57:12.845Z,47.20
2018-07-24T20:59:41.234Z,46.80
2018-07-24T21:02:09.724Z,46.70
2018-07-24T21:04:38.199Z,46.60
2018-07-24T21:07:06.692Z,46.70
2018-07-24T21:09:35.127Z,47.20
2018-07-24T21:14:31.628Z,46.90
2018-07-24T21:17:00.036Z,47.60
2018-07-24T21:21:56.653Z,48.70
2018-07-24T21:24:25.050Z,48.90
2018-07-24T21:26:53.523Z,49.10
2018-07-24T21:29:21.899Z,49.30
2018-07-24T21:31:50.270Z,49.40
2018-07-24T21:34:18.715Z,49.00
2018-07-24T21:36:47.094Z,49.10
2018-07-24T21:39:15.494Z,49.80
2018-07-24T21:41:43.986Z,50.40
2018-07-24T21:44:12.394Z,50.60
2018-07-24T21:49:08.976Z,51.30
2018-07-24T21:54:05.421Z,52.40
2018-07-24T21:56:34.748Z,52.20
2018-07-24T21:59:03.202Z,51.60
2018-07-24T22:01:31.601Z,51.60
2018-07-24T22:04:00.039Z,52.20
2018-07-24T22:08:56.570Z,53.10
2018-07-24T22:11:24.990Z,53.30
2018-07-24T22:13:53.371Z,53.90
2018-07-24T22:16:21.805Z,54.10
2018-07-24T22:18:50.260Z,54.60
2018-07-24T22:21:18.671Z,54.60
2018-07-24T22:23:47.045Z,54.10
2018-07-24T22:26:15.492Z,55.00
2018-07-24T22:28:43.901Z,55.20
2018-07-24T22:31:12.333Z,54.70
2018-07-24T22:33:40.752Z,55.30
2018-07-24T22:36:09.186Z,54.80
2018-07-24T22:38:37.546Z,55.30
2018-07-24T22:43:34.090Z,56.10
2018-07-24T22:48:30.643Z,57.50
2018-07-24T22:53:27.160Z,57.50
2018-07-24T22:55:55.575Z,57.60
2018-07-24T22:58:23.952Z,58.00
2018-07-24T23:03:20.569Z,58.20
2018-07-24T23:05:48.990Z,58.60
2018-07-24T23:10:45.532Z,58.20
2018-07-24T23:13:13.920Z,58.80
2018-07-24T23:15:42.317Z,59.20
2018-07-24T23:20:41.787Z,59.70
2018-07-24T23:23:10.177Z,60.30
2018-07-24T23:25:38.576Z,59.80
2018-07-24T23:30:35.106Z,60.90
2018-07-24T23:33:03.548Z,61.50
2018-07-24T23:35:31.930Z,62.40
2018-07-24T23:38:00.295Z,62.90
2018-07-24T23:40:28.672Z,63.20
2018-07-24T23:45:25.166Z,64.90
2018-07-24T23:47:53.608Z,65.50
2018-07-24T23:50:22.014Z,66.20
2018-07-24T23:52:50.390Z,65.40
2018-07-24T23:55:34.345Z,65.20
2018-07-24T23:58:03.328Z,66.50
